createdAt,value
2023-03-15T00:01:26.415Z,705.03
2023-03-15T00:03:56.057Z,684.85
2023-03-15T00:06:24.470Z,638.97
2023-03-15T00:08:53.028Z,695.50
2023-03-15T00:11:22.790Z,671.92
2023-03-15T00:13:51.707Z,678.65
2023-03-15T00:16:20.043Z,663.47
2023-03-15T00:18:48.766Z,615.67
2023-03-15T00:21:17.348Z,642.92
2023-03-15T00:23:45.766Z,661.50
2023-03-15T00:26:14.304Z,656.63
2023-03-15T00:28:44.217Z,672.75
2023-03-15T00:31:16.709Z,635.70
2023-03-15T00:33:45.779Z,647.58
2023-03-15T00:36:14.729Z,657.22
2023-03-15T00:38:45.094Z,575.38
2023-03-15T00:41:15.744Z,653.25
2023-03-15T00:43:46.395Z,640.05
2023-03-15T00:46:15.991Z,577.53
2023-03-15T00:48:44.622Z,510.83
2023-03-15T00:51:14.814Z,694.50
2023-03-15T00:53:45.378Z,674.67
2023-03-15T00:56:15.148Z,681.97
2023-03-15T00:58:45.805Z,634.90
2023-03-15T01:01:16.133Z,674.38
2023-03-15T01:03:45.228Z,661.85
2023-03-15T01:06:15.052Z,675.90
2023-03-15T01:08:43.924Z,603.05
2023-03-15T01:11:14.337Z,660.70
2023-03-15T01:13:44.269Z,574.90
2023-03-15T01:16:14.524Z,645.15
2023-03-15T01:18:43.501Z,624.95
2023-03-15T01:21:14.134Z,612.95
2023-03-15T01:23:42.925Z,554.13
2023-03-15T01:26:17.416Z,610.47
2023-03-15T01:28:47.568Z,679.90
2023-03-15T01:31:19.815Z,680.33
2023-03-15T01:33:48.317Z,628.33
2023-03-15T01:36:16.762Z,618.20
2023-03-15T01:38:45.613Z,648.40
2023-03-15T01:41:14.415Z,646.78
2023-03-15T01:43:47.326Z,644.15
2023-03-15T01:46:26.172Z,563.85
2023-03-15T01:48:58.793Z,598.95
2023-03-15T01:51:32.175Z,510.48
2023-03-15T01:54:04.385Z,690.55
2023-03-15T01:56:34.382Z,637.50
2023-03-15T01:59:04.184Z,661.72
2023-03-15T02:01:34.336Z,558.00
2023-03-15T02:04:06.387Z,589.85
2023-03-15T02:06:35.311Z,600.42
2023-03-15T02:09:06.219Z,457.73
2023-03-15T02:11:35.856Z,524.13
2023-03-15T02:14:05.061Z,538.75
2023-03-15T02:16:35.730Z,469.45
2023-03-15T02:19:04.139Z,549.92
2023-03-15T02:21:40.992Z,566.70
2023-03-15T02:24:19.416Z,632.45
2023-03-15T02:26:51.266Z,629.50
2023-03-15T02:29:21.355Z,554.75
2023-03-15T02:31:50.064Z,505.13
2023-03-15T02:34:18.629Z,638.90
2023-03-15T02:36:47.092Z,458.63
2023-03-15T02:39:17.218Z,620.13
2023-03-15T02:41:48.237Z,612.47
2023-03-15T02:44:19.365Z,531.80
2023-03-15T02:46:51.171Z,456.50
2023-03-15T02:49:21.540Z,494.83
2023-03-15T02:51:49.949Z,476.35
2023-03-15T02:54:18.407Z,525.35
2023-03-15T02:56:46.802Z,614.15
2023-03-15T02:59:15.272Z,547.20
2023-03-15T03:01:46.050Z,575.25
2023-03-15T03:04:15.819Z,614.95
2023-03-15T03:06:44.278Z,560.17
2023-03-15T03:09:13.213Z,617.88
2023-03-15T03:11:41.683Z,617.10
2023-03-15T03:14:14.007Z,549.53
2023-03-15T03:16:42.742Z,555.80
2023-03-15T03:19:13.000Z,614.65
2023-03-15T03:21:44.432Z,626.30
2023-03-15T03:24:15.990Z,561.80
2023-03-15T03:26:46.105Z,622.15
2023-03-15T03:29:16.778Z,582.25
2023-03-15T03:31:45.776Z,626.25
2023-03-15T03:34:15.666Z,541.22
2023-03-15T03:36:45.784Z,565.65
2023-03-15T03:39:14.440Z,527.13
2023-03-15T03:41:42.952Z,505.80
2023-03-15T03:44:11.271Z,581.92
2023-03-15T03:46:39.666Z,464.50
2023-03-15T03:49:08.110Z,566.75
2023-03-15T03:51:37.861Z,511.80
2023-03-15T03:54:07.828Z,509.83
2023-03-15T03:56:36.438Z,609.33
2023-03-15T03:59:04.919Z,581.33
2023-03-15T04:01:33.648Z,417.02
2023-03-15T04:04:02.141Z,456.75
2023-03-15T04:06:31.287Z,597.53
2023-03-15T04:08:59.803Z,631.70
2023-03-15T04:11:29.770Z,584.08
2023-03-15T04:13:58.270Z,426.55
2023-03-15T04:16:26.866Z,437.25
2023-03-15T04:18:56.399Z,551.63
2023-03-15T04:21:24.908Z,587.13
2023-03-15T04:23:53.916Z,523.95
2023-03-15T04:26:26.449Z,513.67
2023-03-15T04:28:57.307Z,562.60
2023-03-15T04:31:27.209Z,270.13
2023-03-15T04:33:55.819Z,321.60
2023-03-15T04:36:25.918Z,418.17
2023-03-15T04:39:03.396Z,470.90
2023-03-15T04:41:31.981Z,326.38
2023-03-15T04:44:02.078Z,384.63
2023-03-15T04:46:31.052Z,279.02
2023-03-15T04:48:59.780Z,307.30
2023-03-15T04:51:28.255Z,304.67
2023-03-15T04:53:56.690Z,408.15
2023-03-15T04:56:25.162Z,375.20
2023-03-15T04:59:02.835Z,276.90
2023-03-15T05:01:39.318Z,293.73
2023-03-15T05:04:22.003Z,251.13
2023-03-15T05:06:54.107Z,475.73
2023-03-15T05:09:22.772Z,506.92
2023-03-15T05:11:51.696Z,299.88
2023-03-15T05:14:20.882Z,459.17
2023-03-15T05:16:54.131Z,496.88
2023-03-15T05:19:22.938Z,381.67
2023-03-15T05:21:51.521Z,430.27
2023-03-15T05:24:23.122Z,323.67
2023-03-15T05:27:14.955Z,361.63
2023-03-15T05:29:51.009Z,220.45
2023-03-15T05:32:32.775Z,285.58
2023-03-15T05:35:01.833Z,254.10
2023-03-15T05:37:30.504Z,419.65
2023-03-15T05:40:16.442Z,463.63
2023-03-15T05:42:46.760Z,354.20
2023-03-15T05:45:15.810Z,216.98
2023-03-15T05:47:48.392Z,233.68
2023-03-15T05:50:25.117Z,218.07
2023-03-15T05:53:02.000Z,321.30
2023-03-15T05:55:32.293Z,353.02
2023-03-15T06:00:54.561Z,308.13
2023-03-15T06:03:32.054Z,264.38
2023-03-15T06:06:05.324Z,300.65
2023-03-15T06:08:41.950Z,163.35
2023-03-15T06:11:12.255Z,388.77
2023-03-15T06:13:43.495Z,276.95
2023-03-15T06:16:41.039Z,237.93
2023-03-15T06:19:11.502Z,290.50
2023-03-15T06:21:40.882Z,285.30
2023-03-15T06:24:18.750Z,217.23
2023-03-15T06:26:47.597Z,406.90
2023-03-15T06:29:40.222Z,230.45
2023-03-15T06:32:14.339Z,210.98
2023-03-15T06:34:54.542Z,240.93
2023-03-15T06:37:35.367Z,252.68
2023-03-15T06:40:11.678Z,161.90
2023-03-15T06:42:43.593Z,448.38
2023-03-15T06:45:16.877Z,317.85
2023-03-15T06:47:47.877Z,246.07
2023-03-15T06:50:21.747Z,163.75
2023-03-15T06:52:50.897Z,253.48
2023-03-15T06:55:19.909Z,391.20
2023-03-15T06:57:50.153Z,496.98
2023-03-15T07:00:20.349Z,422.70
2023-03-15T07:02:51.193Z,502.05
2023-03-15T07:05:24.733Z,472.30
2023-03-15T07:07:53.526Z,535.53
2023-03-15T07:10:22.679Z,246.55
2023-03-15T07:12:53.420Z,403.40
2023-03-15T07:15:22.756Z,258.33
2023-03-15T07:18:00.015Z,319.42
2023-03-15T07:20:39.237Z,317.58
2023-03-15T07:26:11.947Z,362.58
2023-03-15T07:29:01.386Z,166.88
2023-03-15T07:31:35.629Z,144.23
2023-03-15T07:34:20.744Z,545.30
2023-03-15T07:39:29.098Z,181.68
2023-03-15T07:41:59.009Z,323.77
2023-03-15T07:44:48.564Z,504.55
2023-03-15T07:47:17.793Z,402.17
2023-03-15T07:49:54.101Z,370.05
2023-03-15T07:52:29.181Z,288.20
2023-03-15T07:55:02.282Z,138.70
2023-03-15T07:57:35.349Z,353.00
2023-03-15T08:00:18.413Z,230.13
2023-03-15T08:02:48.030Z,197.38
2023-03-15T08:05:19.429Z,216.80
2023-03-15T08:07:49.821Z,374.98
2023-03-15T08:10:21.100Z,135.57
2023-03-15T08:12:50.099Z,359.35
2023-03-15T08:15:26.074Z,419.83
2023-03-15T08:17:55.019Z,404.30
2023-03-15T08:20:29.916Z,412.60
2023-03-15T08:23:03.860Z,300.63
2023-03-15T08:25:33.300Z,146.57
2023-03-15T08:28:08.605Z,223.35
2023-03-15T08:30:38.173Z,365.00
2023-03-15T08:33:07.824Z,300.60
2023-03-15T08:35:41.448Z,221.70
2023-03-15T08:38:12.809Z,95.88
2023-03-15T08:40:44.657Z,109.13
2023-03-15T08:43:13.478Z,130.50
2023-03-15T08:46:00.566Z,184.65
2023-03-15T08:48:36.099Z,334.05
2023-03-15T08:51:05.723Z,279.70
2023-03-15T08:53:38.916Z,244.07
2023-03-15T08:56:10.736Z,294.65
2023-03-15T08:58:39.492Z,223.30
2023-03-15T09:01:15.440Z,335.00
2023-03-15T09:10:37.499Z,266.25
2023-03-15T09:13:11.879Z,353.33
2023-03-15T09:15:40.865Z,283.98
2023-03-15T09:18:14.705Z,286.10
2023-03-15T09:20:55.315Z,582.58
2023-03-15T09:23:33.425Z,321.77
2023-03-15T09:26:10.735Z,538.47
2023-03-15T09:29:21.665Z,272.92
2023-03-15T09:32:15.075Z,253.57
2023-03-15T09:35:06.496Z,224.90
2023-03-15T09:38:04.149Z,262.15
2023-03-15T09:41:20.768Z,281.10
2023-03-15T09:44:18.305Z,214.20
2023-03-15T09:47:15.032Z,338.00
2023-03-15T09:49:49.955Z,332.05
2023-03-15T09:52:43.968Z,298.90
2023-03-15T09:55:21.536Z,257.67
2023-03-15T10:00:52.910Z,297.80
2023-03-15T10:03:36.236Z,252.32
2023-03-15T10:06:09.383Z,250.07
2023-03-15T10:08:38.381Z,291.75
2023-03-15T10:11:18.018Z,208.05
2023-03-15T10:14:05.549Z,194.98
2023-03-15T10:16:51.265Z,222.35
2023-03-15T10:19:30.336Z,210.20
2023-03-15T10:22:09.864Z,191.43
2023-03-15T10:24:44.868Z,318.65
2023-03-15T10:27:22.143Z,173.98
2023-03-15T10:29:52.032Z,293.25
2023-03-15T10:32:29.326Z,221.70
2023-03-15T10:34:59.676Z,192.68
2023-03-15T10:37:28.865Z,157.80
2023-03-15T10:40:00.122Z,189.15
2023-03-15T10:42:31.182Z,330.15
2023-03-15T10:45:14.807Z,196.30
2023-03-15T10:47:57.550Z,174.88
2023-03-15T10:50:29.950Z,174.13
2023-03-15T10:53:00.577Z,166.02
2023-03-15T10:55:39.927Z,186.38
2023-03-15T10:58:31.426Z,171.15
2023-03-15T11:01:14.282Z,309.83
2023-03-15T11:03:47.860Z,466.63
2023-03-15T11:06:34.074Z,132.98
2023-03-15T11:09:20.160Z,211.80
2023-03-15T11:12:01.017Z,240.40
2023-03-15T11:14:45.685Z,187.05
2023-03-15T11:17:21.958Z,201.95
2023-03-15T11:19:57.182Z,585.63
2023-03-15T11:22:26.788Z,181.98
2023-03-15T11:24:55.864Z,196.15
2023-03-15T11:27:25.890Z,283.90
2023-03-15T11:29:59.938Z,150.82
2023-03-15T11:32:38.563Z,160.02
2023-03-15T11:35:12.796Z,221.30
2023-03-15T11:37:50.915Z,240.77
2023-03-15T11:40:25.471Z,164.40
2023-03-15T11:45:55.339Z,206.48
2023-03-15T11:48:28.276Z,182.07
2023-03-15T11:51:02.129Z,249.23
2023-03-15T11:53:40.744Z,204.27
2023-03-15T11:56:25.373Z,193.27
2023-03-15T11:59:10.789Z,204.52
2023-03-15T12:01:42.287Z,517.13
2023-03-15T12:04:42.344Z,194.60
2023-03-15T12:07:35.126Z,201.32
2023-03-15T12:10:26.175Z,217.23
2023-03-15T12:12:59.811Z,208.85
2023-03-15T12:15:49.758Z,192.75
2023-03-15T12:18:26.381Z,199.93
2023-03-15T12:21:10.268Z,152.02
2023-03-15T12:23:46.508Z,215.30
2023-03-15T12:26:33.623Z,203.35
2023-03-15T12:29:13.504Z,188.25
2023-03-15T12:31:47.996Z,166.20
2023-03-15T12:34:26.146Z,215.45
2023-03-15T12:37:05.689Z,184.07
2023-03-15T12:39:44.956Z,209.15
2023-03-15T12:43:07.075Z,179.13
2023-03-15T12:45:40.821Z,155.68
2023-03-15T12:48:23.657Z,189.93
2023-03-15T12:50:55.934Z,183.60
2023-03-15T12:53:30.850Z,274.58
2023-03-15T12:56:34.570Z,227.70
2023-03-15T12:59:11.033Z,186.90
2023-03-15T13:01:39.481Z,196.13
2023-03-15T13:04:07.994Z,298.13
2023-03-15T13:06:44.736Z,323.73
2023-03-15T13:09:20.241Z,176.45
2023-03-15T13:11:55.159Z,213.50
2023-03-15T13:14:35.000Z,277.63
2023-03-15T13:17:07.842Z,202.02
2023-03-15T13:19:40.359Z,195.25
2023-03-15T13:22:15.768Z,197.98
2023-03-15T13:24:57.866Z,171.27
2023-03-15T13:27:49.989Z,194.05
2023-03-15T13:30:35.362Z,237.77
2023-03-15T13:33:12.057Z,302.15
2023-03-15T13:35:45.398Z,146.63
2023-03-15T13:38:29.393Z,325.33
2023-03-15T13:40:58.659Z,190.68
2023-03-15T13:43:30.437Z,142.70
2023-03-15T13:45:59.873Z,181.50
2023-03-15T13:48:29.761Z,308.55
2023-03-15T13:51:03.557Z,213.13
2023-03-15T13:53:48.605Z,228.82
2023-03-15T13:56:19.241Z,251.25
2023-03-15T13:58:50.691Z,232.30
2023-03-15T14:01:19.290Z,361.90
2023-03-15T14:03:54.104Z,298.83
2023-03-15T14:06:25.497Z,253.57
2023-03-15T14:08:55.887Z,305.98
2023-03-15T14:11:42.868Z,244.40
2023-03-15T14:14:38.554Z,388.17
2023-03-15T14:17:18.707Z,273.13
2023-03-15T14:19:56.741Z,261.50
2023-03-15T14:22:25.554Z,280.40
2023-03-15T14:24:54.596Z,243.38
2023-03-15T14:27:26.551Z,221.55
2023-03-15T14:29:58.035Z,251.63
2023-03-15T14:32:29.772Z,252.05
2023-03-15T14:35:03.453Z,284.55
2023-03-15T14:37:37.202Z,280.27
2023-03-15T14:40:17.329Z,376.43
2023-03-15T14:42:45.927Z,234.57
2023-03-15T14:45:19.117Z,465.38
2023-03-15T14:47:56.813Z,348.25
2023-03-15T14:50:27.914Z,301.90
2023-03-15T14:52:58.428Z,241.55
2023-03-15T14:55:30.369Z,286.77
2023-03-15T14:58:00.507Z,198.50
2023-03-15T15:00:31.149Z,516.25
2023-03-15T15:03:00.359Z,368.88
2023-03-15T15:05:30.454Z,311.48
2023-03-15T15:08:04.687Z,293.40
2023-03-15T15:10:34.819Z,259.52
2023-03-15T15:13:06.726Z,273.02
2023-03-15T15:15:54.370Z,284.88
2023-03-15T15:18:24.150Z,230.32
2023-03-15T15:20:55.720Z,553.05
2023-03-15T15:23:26.791Z,301.45
2023-03-15T15:26:06.914Z,295.33
2023-03-15T15:28:45.119Z,373.27
2023-03-15T15:31:27.311Z,431.58
2023-03-15T15:33:57.376Z,414.15
2023-03-15T15:36:33.903Z,424.67
2023-03-15T15:39:09.242Z,442.50
2023-03-15T15:41:38.940Z,528.03
2023-03-15T15:44:14.401Z,586.85
2023-03-15T15:46:46.109Z,560.85
2023-03-15T15:49:14.635Z,612.22
2023-03-15T15:51:45.831Z,502.90
2023-03-15T15:54:16.754Z,656.03
2023-03-15T15:56:49.763Z,556.78
2023-03-15T15:59:19.205Z,585.08
2023-03-15T16:02:00.625Z,520.75
2023-03-15T16:04:30.194Z,541.45
2023-03-15T16:07:01.419Z,588.22
2023-03-15T16:09:31.503Z,504.98
2023-03-15T16:11:59.980Z,507.92
2023-03-15T16:14:28.479Z,514.35
2023-03-15T16:16:58.184Z,705.58
2023-03-15T16:19:26.669Z,506.70
2023-03-15T16:21:55.580Z,580.05
2023-03-15T16:24:26.548Z,498.75
2023-03-15T16:26:57.350Z,508.00
2023-03-15T16:29:27.421Z,588.75
2023-03-15T16:32:10.090Z,522.83
2023-03-15T16:34:47.569Z,545.92
2023-03-15T16:37:17.129Z,499.33
2023-03-15T16:39:48.196Z,559.97
2023-03-15T16:42:18.116Z,557.78
2023-03-15T16:44:46.770Z,499.13
2023-03-15T16:47:21.520Z,503.30
2023-03-15T16:50:05.804Z,501.60
2023-03-15T16:52:35.167Z,505.52
2023-03-15T16:55:04.468Z,538.35
2023-03-15T16:57:33.153Z,685.35
2023-03-15T17:53:15.235Z,655.67
2023-03-15T17:55:44.123Z,540.13
2023-03-15T18:25:04.919Z,607.92
2023-03-15T18:28:03.324Z,565.20
2023-03-15T18:30:59.160Z,558.28
2023-03-15T18:34:00.927Z,583.63
2023-03-15T18:37:14.465Z,619.42
2023-03-15T18:39:59.962Z,556.83
2023-03-15T18:42:40.856Z,572.50
2023-03-15T18:45:19.689Z,510.02
2023-03-15T18:48:00.103Z,577.50
2023-03-15T18:50:33.505Z,565.47
2023-03-15T18:53:12.837Z,558.45
2023-03-15T18:55:47.592Z,553.58
2023-03-15T18:58:48.346Z,529.67
2023-03-15T19:12:18.773Z,592.05
2023-03-15T19:15:05.224Z,567.58
2023-03-15T19:22:37.144Z,584.10
2023-03-15T19:45:22.311Z,580.53
2023-03-15T19:47:50.888Z,594.63
2023-03-15T19:50:19.851Z,649.72
2023-03-15T19:52:49.304Z,719.72
2023-03-15T19:55:19.483Z,580.08
2023-03-15T19:57:49.887Z,596.03
2023-03-15T20:00:23.492Z,552.38
2023-03-15T20:02:53.951Z,547.88
2023-03-15T20:05:22.758Z,562.85
2023-03-15T20:08:24.256Z,585.80
2023-03-15T20:11:14.940Z,595.78
2023-03-15T20:17:05.355Z,597.22
2023-03-15T20:19:57.273Z,601.03
2023-03-15T20:26:24.143Z,630.95
2023-03-15T20:28:59.375Z,612.15
2023-03-15T20:31:40.091Z,590.50
2023-03-15T20:34:10.228Z,568.65
2023-03-15T20:36:57.857Z,599.90
2023-03-15T20:39:39.165Z,601.78
2023-03-15T20:49:58.551Z,509.60
2023-03-15T20:52:43.029Z,587.25
2023-03-15T20:55:34.333Z,460.20
2023-03-15T20:58:13.584Z,595.63
2023-03-15T21:04:25.174Z,608.50
2023-03-15T21:07:11.260Z,599.88
2023-03-15T21:09:55.747Z,614.58
2023-03-15T21:12:49.922Z,588.85
2023-03-15T21:16:13.958Z,594.72
2023-03-15T21:19:32.594Z,539.83
2023-03-15T21:22:13.422Z,569.00
2023-03-15T21:25:56.713Z,616.13
2023-03-15T21:27:59.998Z,648.10
2023-03-15T21:30:43.278Z,616.20
2023-03-15T21:33:37.468Z,617.33
2023-03-15T21:36:09.989Z,614.85
2023-03-15T21:38:47.692Z,605.63
2023-03-15T21:41:17.909Z,630.10
2023-03-15T21:43:49.282Z,630.63
2023-03-15T21:46:18.181Z,615.10
2023-03-15T21:48:51.625Z,612.47
2023-03-15T21:51:22.449Z,628.47
2023-03-15T21:53:51.813Z,586.50
2023-03-15T21:56:26.171Z,606.72
2023-03-15T21:58:55.051Z,613.67
2023-03-15T22:01:23.938Z,602.03
2023-03-15T22:03:54.855Z,610.05
2023-03-15T22:06:23.899Z,616.08
2023-03-15T22:08:52.779Z,611.15
2023-03-15T22:11:23.328Z,636.15
2023-03-15T22:13:54.900Z,638.20
2023-03-15T22:16:23.633Z,640.42
2023-03-15T22:18:54.492Z,635.20
2023-03-15T22:21:23.170Z,589.67
2023-03-15T22:23:53.621Z,639.88
2023-03-15T22:26:23.822Z,657.33
2023-03-15T22:28:52.759Z,634.25
2023-03-15T22:31:21.577Z,640.42
2023-03-15T22:33:53.313Z,624.15
2023-03-15T22:36:25.263Z,648.28
2023-03-15T22:38:53.814Z,628.83
2023-03-15T22:41:25.298Z,587.67
2023-03-15T22:43:55.839Z,630.00
2023-03-15T22:46:25.299Z,619.72
2023-03-15T22:48:54.146Z,619.13
2023-03-15T22:51:23.081Z,588.13
2023-03-15T22:53:52.591Z,518.92
2023-03-15T22:56:22.862Z,608.45
2023-03-15T22:58:52.381Z,593.58
2023-03-15T23:01:23.372Z,589.58
2023-03-15T23:03:52.424Z,633.25
2023-03-15T23:06:21.363Z,528.17
2023-03-15T23:08:50.971Z,521.33
2023-03-15T23:11:19.934Z,663.40
2023-03-15T23:13:50.302Z,566.92
2023-03-15T23:16:20.696Z,595.28
2023-03-15T23:18:49.302Z,610.80
2023-03-15T23:21:17.710Z,631.45
2023-03-15T23:23:46.334Z,637.15
2023-03-15T23:26:16.695Z,583.88
2023-03-15T23:28:45.745Z,643.60
2023-03-15T23:31:15.633Z,613.67
2023-03-15T23:33:47.200Z,643.78
2023-03-15T23:36:15.770Z,561.55
2023-03-15T23:38:44.260Z,622.60
2023-03-15T23:41:12.793Z,591.20
2023-03-15T23:43:41.519Z,636.72
2023-03-15T23:46:10.082Z,631.80
2023-03-15T23:48:40.445Z,567.80
2023-03-15T23:51:09.325Z,598.38
2023-03-15T23:53:37.892Z,562.90
2023-03-15T23:56:06.831Z,584.58
2023-03-15T23:58:35.664Z,475.58
